Terminal Aerodrome Forecast
Issued by NWS

Home | Current Version | Previous Version | Text Only | Print | Product List | Glossary On
Versions: 1 2 3 4 5 6 7 8 9 10 11 12 13 14 15 16 17 18 19 20
000
FTUS41 KGYX 281720
TAFAUG
TAF
KAUG 281720Z 2818/2918 16012KT P6SM SCT050
      TEMPO 2818/2822 2SM TSRA BKN035CB
     FM290000 28007KT P6SM SCT120
     FM291200 35007KT P6SM SCT025=

USA.gov is the U.S. government's official web portal to all federal, state and local government web resources and services.